Time;durP1;ratioP1;P1;durP2;ratioP2;P2;SDS_P1;SDS_P2;PMS_P1;PMS_P2;Temp;Humidity;BMP_temperature;BMP_pressure;BME280_temperature;BME280_humidity;BME280_pressure;Samples;Min_cycle;Max_cycle;Signal;HPM_P1;HPM_P2
2022/11/30 00:02:14;;;;;;;69.20;20.40;;;;;;;6.78;100.00;102261.69;5010372;28;20032;-76
2022/11/30 00:04:39;;;;;;;60.42;18.35;;;;;;;6.78;100.00;102264.25;5011221;28;20034;-76
2022/11/30 00:07:05;;;;;;;71.75;18.98;;;;;;;6.79;100.00;102260.84;5011418;28;20121;-76
2022/11/30 00:09:30;;;;;;;73.40;20.13;;;;;;;6.80;100.00;102267.72;5010282;28;20045;-76
2022/11/30 00:11:55;;;;;;;62.47;19.15;;;;;;;6.80;100.00;102267.72;5011819;28;20030;-76
2022/11/30 00:14:21;;;;;;;65.70;18.52;;;;;;;6.80;100.00;102265.16;5012092;28;20105;-76
2022/11/30 00:16:46;;;;;;;59.13;17.73;;;;;;;6.82;100.00;102268.63;5010950;28;20025;-76
2022/11/30 00:19:11;;;;;;;63.85;17.63;;;;;;;6.77;100.00;102262.53;5017639;28;20100;-76
2022/11/30 00:21:36;;;;;;;54.08;17.10;;;;;;;6.74;100.00;102260.78;5017814;28;20034;-76
2022/11/30 00:24:04;;;;;;;52.75;17.27;;;;;;;6.72;100.00;102269.31;5011407;28;20033;-76
2022/11/30 00:26:30;;;;;;;49.70;16.70;;;;;;;6.72;100.00;102265.03;5013189;28;20436;-76
2022/11/30 00:28:55;;;;;;;53.05;17.00;;;;;;;6.69;100.00;102262.41;5008550;28;20538;-76
2022/11/30 00:31:20;;;;;;;60.88;19.85;;;;;;;6.72;100.00;102262.47;5012100;28;20103;-76
2022/11/30 00:33:46;;;;;;;51.58;16.85;;;;;;;6.73;100.00;102258.19;5012336;28;20058;-75
2022/11/30 00:36:17;;;;;;;58.33;17.55;;;;;;;6.71;100.00;102260.72;5012978;28;20030;-76
2022/11/30 00:38:44;;;;;;;45.33;15.85;;;;;;;6.71;100.00;102265.00;5015486;28;20044;-76
2022/11/30 00:41:10;;;;;;;53.75;16.35;;;;;;;6.69;100.00;102264.13;5012145;28;20077;-76
2022/11/30 00:43:35;;;;;;;52.55;16.20;;;;;;;6.67;100.00;102263.25;5011821;28;20060;-76
2022/11/30 00:46:01;;;;;;;47.20;16.02;;;;;;;6.68;100.00;102260.69;5010619;28;20029;-76
2022/11/30 00:48:26;;;;;;;46.42;15.88;;;;;;;6.68;100.00;102262.41;5010609;28;20022;-76
2022/11/30 00:50:52;;;;;;;44.60;15.23;;;;;;;6.67;100.00;102263.25;5012583;28;20022;-76
2022/11/30 00:53:19;;;;;;;40.53;15.32;;;;;;;6.65;100.00;102262.34;5011468;28;20041;-76
2022/11/30 00:55:46;;;;;;;44.92;15.77;;;;;;;6.66;100.00;102261.50;5013601;28;20025;-76
2022/11/30 00:58:13;;;;;;;51.58;16.40;;;;;;;6.63;100.00;102264.91;5012364;28;20057;-76
2022/11/30 01:00:38;;;;;;;40.88;14.90;;;;;;;6.63;100.00;102271.75;5000590;28;20058;-76
2022/11/30 01:03:03;;;;;;;47.13;15.75;;;;;;;6.61;100.00;102276.03;5013034;28;20065;-76
2022/11/30 01:05:31;;;;;;;41.72;15.35;;;;;;;6.59;100.00;102267.41;5011369;28;20037;-76
2022/11/30 01:07:59;;;;;;;40.00;15.90;;;;;;;6.60;100.00;102267.44;5008505;28;20046;-76
2022/11/30 01:10:24;;;;;;;42.58;14.77;;;;;;;6.60;100.00;102262.28;5008942;28;20112;-76
2022/11/30 01:12:49;;;;;;;41.97;16.45;;;;;;;6.59;100.00;102275.13;5015011;28;20108;-76
2022/11/30 01:15:16;;;;;;;41.58;15.80;;;;;;;6.56;100.00;102273.38;5011840;28;20073;-76
2022/11/30 01:17:41;;;;;;;43.55;16.00;;;;;;;6.55;100.00;102274.22;5010375;28;20050;-76
2022/11/30 01:20:07;;;;;;;44.00;15.80;;;;;;;6.54;100.00;102281.94;4993865;28;20508;-76
2022/11/30 01:22:33;;;;;;;49.00;16.27;;;;;;;6.55;100.00;102284.50;5008099;28;20030;-76
2022/11/30 01:24:58;;;;;;;40.45;15.73;;;;;;;6.53;100.00;102277.63;5010061;28;20436;-76
2022/11/30 01:27:24;;;;;;;43.78;16.27;;;;;;;6.53;100.00;102282.78;5011133;28;20048;-76
2022/11/30 01:29:49;;;;;;;43.58;15.75;;;;;;;6.54;100.00;102279.38;5008935;28;20033;-76
2022/11/30 01:32:14;;;;;;;41.53;16.15;;;;;;;6.53;100.00;102286.22;5010715;28;20108;-76
2022/11/30 01:34:39;;;;;;;44.92;16.17;;;;;;;6.54;100.00;102281.94;5010876;28;20029;-76
2022/11/30 01:37:05;;;;;;;40.97;15.57;;;;;;;6.55;100.00;102283.69;5006430;28;20034;-76
2022/11/30 01:39:30;;;;;;;44.38;15.70;;;;;;;6.53;100.00;102280.19;5007728;28;20394;-76
2022/11/30 01:41:55;;;;;;;37.55;15.15;;;;;;;6.55;100.00;102286.25;5010204;28;20123;-76
2022/11/30 01:44:25;;;;;;;41.85;15.68;;;;;;;6.55;100.00;102286.25;4993448;28;20042;-76
2022/11/30 01:47:01;;;;;;;40.70;15.60;;;;;;;6.53;100.00;102285.34;4993004;28;20033;-76
2022/11/30 01:49:36;;;;;;;42.08;15.73;;;;;;;6.53;100.00;102285.34;5010426;28;20028;-76
2022/11/30 01:52:09;;;;;;;41.72;15.82;;;;;;;6.53;100.00;102287.94;5008221;28;20026;-76
2022/11/30 01:54:40;;;;;;;42.78;15.88;;;;;;;6.50;100.00;102287.84;5010632;28;20034;-76
2022/11/30 01:57:19;;;;;;;42.70;16.00;;;;;;;6.51;100.00;102290.47;5010208;28;20022;-76
2022/11/30 01:59:45;;;;;;;39.47;15.00;;;;;;;6.52;100.00;102293.91;5009763;28;20415;-77
2022/11/30 02:02:11;;;;;;;48.28;15.70;;;;;;;6.53;100.00;102299.09;5004411;28;20045;-77
2022/11/30 02:04:37;;;;;;;43.63;16.05;;;;;;;6.54;100.00;102306.00;5015093;28;20029;-76
2022/11/30 02:07:06;;;;;;;39.70;15.63;;;;;;;6.56;100.00;102303.41;5016088;28;20034;-76
2022/11/30 02:09:40;;;;;;;45.20;16.52;;;;;;;6.56;100.00;102303.41;5010627;28;20045;-76
2022/11/30 02:12:07;;;;;;;;;;;;;;;6.59;100.00;102298.31;5009069;28;20034;-76
2022/11/30 02:14:41;;;;;;;37.92;14.57;;;;;;;6.59;100.00;102308.63;5004526;28;20003;-76
2022/11/30 02:17:37;;;;;;;40.55;15.40;;;;;;;6.59;100.00;102306.91;5003713;28;20440;-76
2022/11/30 02:20:40;;;;;;;40.33;15.20;;;;;;;6.59;100.00;102306.06;5010033;28;20029;-76
2022/11/30 02:23:33;;;;;;;44.25;15.98;;;;;;;6.55;100.00;102305.13;5012613;28;20196;-76
2022/11/30 02:26:05;;;;;;;36.88;15.40;;;;;;;6.54;100.00;102302.53;5007305;28;20034;-76
2022/11/30 02:29:06;;;;;;;43.17;15.60;;;;;;;6.53;100.00;102304.25;5005702;28;20105;-76
2022/11/30 02:31:49;;;;;;;36.05;14.73;;;;;;;6.48;100.00;102297.28;5008170;28;20022;-76
2022/11/30 02:34:19;;;;;;;37.65;14.93;;;;;;;6.53;100.00;102300.81;5008972;28;20030;-76
2022/11/30 02:36:46;;;;;;;43.50;15.23;;;;;;;6.53;100.00;102304.25;4999935;28;20033;-76
2022/11/30 02:39:12;;;;;;;40.95;15.05;;;;;;;6.57;100.00;102300.00;4998083;28;20041;-76
2022/11/30 02:41:39;;;;;;;38.78;15.32;;;;;;;6.52;100.00;102299.06;5015556;28;20025;-76
2022/11/30 02:44:08;;;;;;;37.08;15.30;;;;;;;6.49;100.00;102301.56;4991985;28;20026;-76
2022/11/30 02:46:45;;;;;;;41.58;15.48;;;;;;;6.49;100.00;102305.03;5008034;28;20040;-76
2022/11/30 02:49:25;;;;;;;39.53;14.55;;;;;;;6.49;100.00;102299.88;5010623;28;20022;-76
2022/11/30 02:51:52;;;;;;;33.42;14.00;;;;;;;6.51;100.00;102305.06;5013470;28;20036;-76
2022/11/30 02:54:18;;;;;;;36.55;15.25;;;;;;;6.53;100.00;102306.81;5010115;28;20726;-76
2022/11/30 02:56:43;;;;;;;41.47;15.50;;;;;;;6.51;100.00;102311.06;5008760;28;20492;-76
2022/11/30 02:59:09;;;;;;;38.22;15.38;;;;;;;6.49;100.00;102299.88;5006685;28;20022;-76
2022/11/30 03:01:34;;;;;;;36.30;15.55;;;;;;;6.51;100.00;102302.47;5005961;28;20542;-76
2022/11/30 03:04:00;;;;;;;36.10;15.07;;;;;;;6.55;100.00;102312.00;5010758;28;20385;-76
2022/11/30 03:06:25;;;;;;;36.90;15.35;;;;;;;6.55;100.00;102312.84;5009967;28;20060;-76
2022/11/30 03:08:50;;;;;;;39.17;15.00;;;;;;;6.57;100.00;102310.31;4992363;28;20049;-76
2022/11/30 03:11:15;;;;;;;41.75;15.35;;;;;;;6.58;100.00;102306.88;5011476;28;20037;-76
2022/11/30 03:13:41;;;;;;;35.47;14.82;;;;;;;6.60;100.00;102305.22;5009586;28;20116;-76
2022/11/30 03:16:11;;;;;;;39.25;15.70;;;;;;;6.58;100.00;102305.19;5009069;28;20392;-76
2022/11/30 03:18:37;;;;;;;34.03;14.60;;;;;;;6.57;100.00;102307.72;5008061;28;20087;-76
2022/11/30 03:21:10;;;;;;;35.97;15.75;;;;;;;6.55;100.00;102297.38;5011182;28;20030;-76
2022/11/30 03:23:37;;;;;;;29.97;13.87;;;;;;;6.55;100.00;102306.84;5007088;28;20480;-76
2022/11/30 03:26:03;;;;;;;35.15;14.00;;;;;;;6.53;100.00;102311.09;5009617;28;20292;-76
2022/11/30 03:28:28;;;;;;;32.40;14.25;;;;;;;6.52;100.00;102304.22;5009150;28;20025;-76
2022/11/30 03:30:53;;;;;;;37.33;14.93;;;;;;;6.50;100.00;102301.59;5009213;28;20026;-76
2022/11/30 03:33:19;;;;;;;33.85;14.18;;;;;;;6.51;100.00;102316.22;5008894;28;20495;-76
2022/11/30 03:35:44;;;;;;;31.33;13.60;;;;;;;6.49;100.00;102302.44;5009640;28;20033;-76
2022/11/30 03:38:10;;;;;;;35.78;15.18;;;;;;;6.48;100.00;102307.59;5008448;28;20018;-76
2022/11/30 03:40:36;;;;;;;30.60;13.85;;;;;;;6.47;100.00;102309.31;5010100;28;20127;-76
2022/11/30 03:43:02;;;;;;;35.22;15.23;;;;;;;6.48;100.00;102312.75;5009367;28;20651;-76
2022/11/30 03:45:27;;;;;;;35.05;14.23;;;;;;;6.46;100.00;102304.13;5010382;28;20061;-76
2022/11/30 03:47:53;;;;;;;30.92;13.65;;;;;;;6.46;100.00;102312.72;5006798;28;20030;-76
2022/11/30 03:50:18;;;;;;;32.92;13.98;;;;;;;6.45;100.00;102315.25;5009451;28;20049;-76
2022/11/30 03:52:43;;;;;;;33.42;14.18;;;;;;;6.44;100.00;102314.38;5010240;28;20025;-76
2022/11/30 03:55:09;;;;;;;34.78;14.27;;;;;;;6.43;100.00;102319.50;5012485;28;20053;-76
2022/11/30 03:57:34;;;;;;;36.38;14.48;;;;;;;6.41;100.00;102327.25;5011100;28;20030;-76
2022/11/30 03:59:59;;;;;;;34.67;14.60;;;;;;;6.40;100.00;102329.78;4997657;28;20064;-76
2022/11/30 04:02:25;;;;;;;31.63;13.77;;;;;;;6.40;100.00;102325.50;5010523;28;20101;-76
2022/11/30 04:04:50;;;;;;;37.45;14.88;;;;;;;6.39;100.00;102328.91;4994856;28;20033;-76
2022/11/30 04:07:15;;;;;;;35.33;14.40;;;;;;;6.40;100.00;102332.34;4999340;28;20029;-76
2022/11/30 04:09:41;;;;;;;34.05;14.80;;;;;;;6.39;100.00;102325.47;5013921;28;20038;-76
2022/11/30 04:12:06;;;;;;;32.95;14.32;;;;;;;6.37;100.00;102320.28;5011428;28;20444;-76
2022/11/30 04:14:31;;;;;;;34.00;14.82;;;;;;;6.37;100.00;102317.69;5012741;28;20510;-76
2022/11/30 04:16:57;;;;;;;35.30;15.00;;;;;;;6.36;100.00;102321.13;5011110;28;20044;-76
2022/11/30 04:19:22;;;;;;;34.92;14.98;;;;;;;6.34;100.00;102326.25;5011409;28;20055;-76
2022/11/30 04:21:47;;;;;;;32.05;14.27;;;;;;;6.34;100.00;102330.53;5011935;28;20508;-76
2022/11/30 04:24:13;;;;;;;35.08;14.43;;;;;;;6.35;100.00;102332.25;5012039;28;20037;-76
2022/11/30 04:26:38;;;;;;;35.65;14.80;;;;;;;6.34;100.00;102328.84;4995687;28;20025;-76
2022/11/30 04:29:04;;;;;;;29.98;13.43;;;;;;;6.32;100.00;102333.09;5011294;28;20127;-76
2022/11/30 04:31:29;;;;;;;35.08;14.32;;;;;;;6.25;100.00;102318.38;4995839;28;20034;-76
2022/11/30 04:33:54;;;;;;;31.73;14.05;;;;;;;6.29;100.00;102327.88;5016133;28;20037;-76
2022/11/30 04:36:20;;;;;;;31.38;14.57;;;;;;;6.26;100.00;102321.81;5011523;28;20033;-76
2022/11/30 04:38:46;;;;;;;32.42;14.60;;;;;;;6.25;100.00;102320.94;5014825;28;20026;-76
2022/11/30 04:41:12;;;;;;;39.03;14.70;;;;;;;6.24;100.00;102323.47;4992695;28;20026;-76
2022/11/30 04:43:37;;;;;;;36.35;14.65;;;;;;;6.23;100.00;102325.19;5011094;28;20037;-76
2022/11/30 04:46:04;;;;;;;33.55;14.82;;;;;;;6.20;100.00;102320.00;5001427;28;20123;-76
2022/11/30 04:48:29;;;;;;;35.60;14.07;;;;;;;6.18;100.00;102318.22;5012549;28;20444;-76
2022/11/30 04:51:00;;;;;;;33.10;14.35;;;;;;;6.17;100.00;102319.06;5011351;28;20545;-76
2022/11/30 04:53:25;;;;;;;32.03;14.57;;;;;;;6.15;100.00;102323.31;4992791;28;20064;-76
2022/11/30 04:55:50;;;;;;;32.92;14.20;;;;;;;6.12;100.00;102326.72;5015044;28;20060;-76
2022/11/30 04:58:16;;;;;;;35.17;14.00;;;;;;;6.11;100.00;102322.41;5012362;28;20075;-76
2022/11/30 05:00:41;;;;;;;32.88;13.48;;;;;;;6.13;100.00;102323.31;5010052;28;20149;-76
2022/11/30 05:03:06;;;;;;;34.05;14.35;;;;;;;6.11;100.00;102327.53;5012278;28;20133;-76
2022/11/30 05:05:32;;;;;;;34.20;14.60;;;;;;;6.11;100.00;102330.13;5009159;28;20026;-76
2022/11/30 05:07:58;;;;;;;32.47;14.35;;;;;;;6.09;100.00;102326.63;5012059;28;20050;-76
2022/11/30 05:10:25;;;;;;;30.95;13.60;;;;;;;6.06;100.00;102331.75;5011370;28;20072;-77
2022/11/30 05:12:50;;;;;;;33.35;14.52;;;;;;;6.01;100.00;102328.19;5019689;28;20034;-76
2022/11/30 05:15:16;;;;;;;32.75;14.38;;;;;;;6.03;100.00;102331.69;5008566;28;20021;-76
2022/11/30 05:17:42;;;;;;;36.35;14.65;;;;;;;6.02;100.00;102334.22;5010322;28;20092;-76
2022/11/30 05:20:08;;;;;;;31.58;14.00;;;;;;;6.01;100.00;102338.50;5010227;28;20512;-76
2022/11/30 05:22:34;;;;;;;35.78;14.15;;;;;;;5.99;100.00;102335.03;5002733;28;20025;-76
2022/11/30 05:24:59;;;;;;;35.70;14.13;;;;;;;6.00;100.00;102335.91;5011275;28;20442;-76
2022/11/30 05:27:25;;;;;;;34.40;14.45;;;;;;;5.96;100.00;102327.25;5011094;28;20033;-76
2022/11/30 05:29:50;;;;;;;33.30;15.00;;;;;;;5.97;100.00;102334.13;4991958;28;20107;-76
2022/11/30 05:32:15;;;;;;;38.25;14.15;;;;;;;5.94;100.00;102334.06;5011775;28;20550;-76
2022/11/30 05:34:40;;;;;;;35.53;14.50;;;;;;;5.97;100.00;102341.00;5010989;28;20447;-76
2022/11/30 05:37:06;;;;;;;33.33;13.98;;;;;;;5.93;100.00;102343.53;5010905;28;20083;-76
2022/11/30 05:39:31;;;;;;;39.03;15.20;;;;;;;5.92;100.00;102353.78;5011384;28;20036;-76
2022/11/30 05:41:56;;;;;;;32.88;13.82;;;;;;;5.89;100.00;102349.44;5011577;28;20025;-76
2022/11/30 05:44:22;;;;;;;36.08;15.27;;;;;;;5.90;100.00;102346.03;5010983;28;20026;-76
2022/11/30 05:46:47;;;;;;;36.83;14.52;;;;;;;5.89;100.00;102345.97;5007815;28;20025;-76
2022/11/30 05:49:12;;;;;;;35.80;14.73;;;;;;;5.89;100.00;102348.56;5008695;28;20025;-76
2022/11/30 05:51:39;;;;;;;35.72;14.40;;;;;;;5.88;100.00;102351.97;5005729;28;20168;-76
2022/11/30 05:54:05;;;;;;;33.92;14.68;;;;;;;5.83;100.00;102357.00;5010342;28;20029;-76
2022/11/30 05:56:30;;;;;;;33.78;13.73;;;;;;;5.79;100.00;102347.50;5009452;28;20033;-76
2022/11/30 05:58:55;;;;;;;35.30;14.30;;;;;;;5.76;100.00;102356.84;5010284;28;20037;-76
2022/11/30 06:01:23;;;;;;;37.15;14.48;;;;;;;5.72;100.00;102357.63;5010128;28;20610;-76
2022/11/30 06:03:49;;;;;;;30.10;13.15;;;;;;;5.69;100.00;102362.69;5012304;28;20037;-76
2022/11/30 06:06:15;;;;;;;34.55;14.40;;;;;;;5.66;100.00;102354.94;5014233;28;20036;-76
2022/11/30 06:08:41;;;;;;;31.38;13.55;;;;;;;5.63;100.00;102362.56;5008824;28;20046;-77
2022/11/30 06:11:06;;;;;;;33.75;14.32;;;;;;;5.62;100.00;102358.25;5003293;28;20033;-76
2022/11/30 06:13:31;;;;;;;32.67;13.48;;;;;;;5.61;100.00;102364.22;5004341;28;20388;-76
2022/11/30 06:15:58;;;;;;;34.05;13.73;;;;;;;5.64;100.00;102359.16;5011094;28;20025;-76
2022/11/30 06:18:24;;;;;;;33.38;13.93;;;;;;;5.64;100.00;102367.75;5013359;28;20029;-76
2022/11/30 06:20:50;;;;;;;32.95;14.07;;;;;;;5.65;100.00;102360.91;5010141;28;20026;-76
2022/11/30 06:23:15;;;;;;;30.77;13.45;;;;;;;5.66;100.00;102368.66;5009347;28;20141;-76
2022/11/30 06:25:40;;;;;;;35.88;13.95;;;;;;;5.67;100.00;102361.78;5008888;28;20385;-76
2022/11/30 06:28:08;;;;;;;42.78;15.10;;;;;;;5.68;100.00;102366.97;5009119;28;20160;-76
2022/11/30 06:30:33;;;;;;;38.22;14.73;;;;;;;5.69;100.00;102370.41;5009301;28;20025;-76
2022/11/30 06:32:59;;;;;;;36.17;15.20;;;;;;;5.68;100.00;102369.53;5010724;28;20403;-76
2022/11/30 06:35:24;;;;;;;37.55;15.07;;;;;;;5.69;100.00;102372.97;5010938;28;20522;-76
2022/11/30 06:37:50;;;;;;;34.83;13.77;;;;;;;5.66;100.00;102372.94;5006932;28;20077;-76
2022/11/30 06:40:16;;;;;;;33.85;14.30;;;;;;;5.63;100.00;102368.59;5004215;28;20031;-76
2022/11/30 06:42:41;;;;;;;36.42;14.50;;;;;;;5.58;100.00;102372.78;5003629;28;20026;-76
2022/11/30 06:45:08;;;;;;;29.42;13.32;;;;;;;5.52;100.00;102372.66;4993274;28;20022;-76
2022/11/30 06:47:33;;;;;;;32.90;14.25;;;;;;;5.43;100.00;102381.03;5008807;28;20026;-76
2022/11/30 06:49:59;;;;;;;32.88;14.13;;;;;;;5.32;100.00;102381.63;5010208;28;20033;-76
2022/11/30 06:52:24;;;;;;;32.83;13.48;;;;;;;5.19;100.00;102385.59;5008671;28;20022;-76
2022/11/30 06:54:50;;;;;;;32.17;13.82;;;;;;;5.13;100.00;102385.44;5010695;28;20076;-76
2022/11/30 06:57:15;;;;;;;32.35;13.80;;;;;;;5.04;100.00;102380.13;5010518;28;20033;-76
2022/11/30 06:59:45;;;;;;;30.52;13.35;;;;;;;4.97;100.00;102381.69;5010745;28;20037;-76
2022/11/30 07:02:11;;;;;;;29.42;12.32;;;;;;;4.87;100.00;102392.53;5009165;28;20038;-76
2022/11/30 07:04:37;;;;;;;34.15;13.77;;;;;;;4.80;100.00;102388.09;5010341;28;20018;-76
2022/11/30 07:07:02;;;;;;;30.05;12.85;;;;;;;4.73;100.00;102392.22;5005889;28;20065;-76
2022/11/30 07:09:27;;;;;;;29.10;12.27;;;;;;;4.64;100.00;102386.81;5008013;28;20042;-76
2022/11/30 07:11:53;;;;;;;36.00;13.23;;;;;;;4.57;100.00;102396.94;4996784;28;20129;-76
2022/11/30 07:14:18;;;;;;;26.75;11.77;;;;;;;4.53;100.00;102402.81;5009557;28;20480;-76
2022/11/30 07:16:43;;;;;;;28.10;12.38;;;;;;;4.48;100.00;102400.13;5004292;28;20064;-76
2022/11/30 07:19:09;;;;;;;30.90;13.10;;;;;;;4.49;100.00;102404.44;5007945;28;20508;-76
2022/11/30 07:21:34;;;;;;;30.85;13.43;;;;;;;4.52;100.00;102406.19;4999582;28;20029;-77
2022/11/30 07:26:43;;;;;;;29.55;13.20;;;;;;;4.55;100.00;102421.69;5008879;28;20041;-76
2022/11/30 07:29:08;;;;;;;28.73;12.50;;;;;;;4.54;100.00;102423.38;5011809;28;20017;-76
2022/11/30 07:31:34;;;;;;;31.98;12.70;;;;;;;4.50;100.00;102416.44;5013814;28;20396;-76
2022/11/30 07:34:05;;;;;;;30.35;13.38;;;;;;;4.57;100.00;102431.16;4995332;28;20033;-77
2022/11/30 07:36:31;;;;;;;28.77;11.80;;;;;;;4.60;100.00;102433.81;5010742;28;20029;-77
2022/11/30 07:38:57;;;;;;;28.80;12.02;;;;;;;4.60;100.00;102431.25;5012932;28;20042;-77
2022/11/30 07:41:22;;;;;;;31.17;12.70;;;;;;;4.59;100.00;102432.06;5013700;28;20021;-77
2022/11/30 07:43:48;;;;;;;29.05;13.05;;;;;;;4.63;100.00;102438.19;5013134;28;20034;-77
2022/11/30 07:46:15;;;;;;;29.88;12.65;;;;;;;4.66;100.00;102428.84;5013865;28;20033;-76
2022/11/30 07:48:41;;;;;;;32.45;13.75;;;;;;;4.72;100.00;102434.13;5012678;28;20463;-76
2022/11/30 07:51:12;;;;;;;32.58;13.52;;;;;;;4.78;100.00;102438.53;5012382;28;20049;-77
2022/11/30 07:53:37;;;;;;;33.92;14.05;;;;;;;4.84;100.00;102437.84;5013589;28;20025;-77
2022/11/30 07:56:21;;;;;;;35.78;14.07;;;;;;;4.89;100.00;102433.69;5014001;28;20079;-77
2022/11/30 07:58:49;;;;;;;36.90;15.30;;;;;;;4.97;100.00;102438.22;4995159;28;20037;-77
2022/11/30 08:01:20;;;;;;;46.22;16.35;;;;;;;5.01;100.00;102437.44;5005745;28;20061;-77
2022/11/30 08:03:45;;;;;;;38.75;15.45;;;;;;;5.07;100.00;102441.84;5012878;28;20638;-77
2022/11/30 08:06:15;;;;;;;40.30;15.30;;;;;;;5.10;100.00;102442.81;5013480;28;20109;-77
2022/11/30 08:08:42;;;;;;;45.15;16.60;;;;;;;5.11;100.00;102446.25;5012252;28;20050;-76
2022/11/30 08:11:11;;;;;;;45.72;16.25;;;;;;;5.18;100.00;102448.13;5013412;28;20037;-75
2022/11/30 08:13:36;;;;;;;45.67;15.63;;;;;;;5.22;100.00;102452.50;5013128;28;20033;-75
2022/11/30 08:16:11;;;;;;;45.65;16.98;;;;;;;5.27;100.00;102450.91;5012672;28;20018;-75
2022/11/30 08:18:36;;;;;;;;;;;;;;;5.32;100.00;102454.44;5013734;28;20034;-75
2022/11/30 08:21:05;;;;;;;42.25;15.68;;;;;;;5.35;100.00;102457.09;5009697;28;19917;-75
2022/11/30 08:23:33;;;;;;;52.35;17.40;;;;;;;5.41;100.00;102451.22;5012699;28;20436;-75
2022/11/30 08:26:11;;;;;;;53.97;17.50;;;;;;;5.46;100.00;102455.66;5013034;28;20108;-75
2022/11/30 08:28:37;;;;;;;51.83;17.75;;;;;;;5.52;100.00;102454.94;5012850;28;20028;-75
2022/11/30 08:31:06;;;;;;;56.15;17.40;;;;;;;5.57;100.00;102455.91;5012954;28;20022;-75
2022/11/30 08:33:33;;;;;;;53.83;18.58;;;;;;;5.60;100.00;102452.50;5011350;28;20488;-75
2022/11/30 08:36:10;;;;;;;51.72;18.13;;;;;;;5.66;100.00;102460.41;5013088;28;20030;-75
2022/11/30 08:38:37;;;;;;;56.65;18.00;;;;;;;5.72;100.00;102470.81;5000743;28;20057;-77
2022/11/30 08:41:03;;;;;;;60.85;19.38;;;;;;;5.81;100.00;102471.00;5012743;28;20156;-77
2022/11/30 08:43:29;;;;;;;67.60;19.75;;;;;;;5.90;100.00;102466.97;4995061;28;20392;-77
2022/11/30 08:45:54;;;;;;;68.68;19.85;;;;;;;5.93;100.00;102472.19;5012197;28;20538;-77
2022/11/30 08:48:20;;;;;;;63.72;20.05;;;;;;;5.91;100.00;102473.00;5011972;28;20037;-76
2022/11/30 08:50:45;;;;;;;62.70;20.15;;;;;;;5.90;100.00;102478.97;5012732;28;20026;-75
2022/11/30 08:53:11;;;;;;;60.50;19.38;;;;;;;5.86;100.00;102472.88;5012287;28;20140;-75
2022/11/30 08:55:36;;;;;;;68.45;21.20;;;;;;;5.86;100.00;102474.56;4994930;28;20076;-76
2022/11/30 08:58:01;;;;;;;59.47;20.52;;;;;;;5.85;100.00;102483.13;5012066;28;20034;-76
2022/11/30 09:00:27;;;;;;;66.68;22.30;;;;;;;5.86;100.00;102480.59;5008030;28;20571;-76
2022/11/30 09:02:52;;;;;;;70.63;22.00;;;;;;;5.83;100.00;102480.50;5007865;28;20056;-77
2022/11/30 09:05:17;;;;;;;66.65;21.80;;;;;;;5.83;100.00;102480.50;4993088;28;20034;-77
2022/11/30 09:07:43;;;;;;;71.03;22.70;;;;;;;5.84;100.00;102483.94;5007466;28;20030;-76
2022/11/30 09:10:08;;;;;;;68.75;22.52;;;;;;;5.89;100.00;102480.66;5012211;28;20049;-76
2022/11/30 09:12:39;;;;;;;73.50;23.63;;;;;;;6.04;100.00;102480.13;5012067;28;20281;-76
2022/11/30 09:15:06;;;;;;;74.43;22.48;;;;;;;6.21;100.00;102490.78;4997160;28;20060;-76
2022/11/30 09:17:32;;;;;;;80.47;25.42;;;;;;;6.29;100.00;102489.22;5010767;28;20432;-76
2022/11/30 09:19:58;;;;;;;81.90;24.45;;;;;;;6.36;100.00;102498.81;5012210;28;20534;-76
2022/11/30 09:22:24;;;;;;;84.03;24.52;;;;;;;6.52;100.00;102493.13;5010279;28;20025;-76
2022/11/30 09:24:49;;;;;;;96.35;26.67;;;;;;;6.66;100.00;102493.41;5012110;28;20076;-76
2022/11/30 09:27:14;;;;;;;79.07;24.90;;;;;;;6.71;100.00;102495.22;5011070;28;20026;-76
2022/11/30 09:29:40;;;;;;;88.30;26.25;;;;;;;6.73;100.00;102497.81;4993613;28;20592;-76
2022/11/30 09:32:05;;;;;;;90.03;26.98;;;;;;;6.73;100.00;102500.41;5012155;28;20030;-76
2022/11/30 09:34:31;;;;;;;77.47;25.25;;;;;;;6.82;100.00;102502.28;5011811;28;20068;-76
2022/11/30 09:36:56;;;;;;;82.80;25.85;;;;;;;6.85;100.00;102500.63;5009039;28;20034;-76
2022/11/30 09:39:22;;;;;;;81.70;25.50;;;;;;;6.88;100.00;102500.69;5005400;28;20531;-77
2022/11/30 09:42:05;;;;;;;78.10;25.45;;;;;;;6.94;100.00;102494.78;5011652;28;20597;-77
2022/11/30 09:44:44;;;;;;;75.63;24.33;;;;;;;7.00;100.00;102500.03;5010440;28;20157;-77
2022/11/30 09:47:41;;;;;;;79.07;25.80;;;;;;;7.06;100.00;102487.25;5011194;28;20022;-77
2022/11/30 09:50:17;;;;;;;69.15;23.77;;;;;;;7.09;100.00;102492.47;5011428;28;20037;-77
2022/11/30 09:52:48;;;;;;;73.60;24.38;;;;;;;7.11;100.00;102494.22;5011530;28;20504;-77
2022/11/30 09:55:23;;;;;;;68.90;23.60;;;;;;;7.20;100.00;102492.63;5009953;28;20492;-76
2022/11/30 09:57:52;;;;;;;71.20;24.33;;;;;;;7.25;100.00;102493.56;5010474;28;20026;-76
2022/11/30 10:00:20;;;;;;;76.20;24.70;;;;;;;7.26;100.00;102493.59;5011122;28;20459;-76
2022/11/30 10:02:48;;;;;;;64.28;22.85;;;;;;;7.24;100.00;102496.97;5011283;28;20033;-76
2022/11/30 10:05:24;;;;;;;62.17;22.52;;;;;;;7.23;100.00;102492.69;5010062;28;20022;-76
2022/11/30 10:08:09;;;;;;;64.75;22.02;;;;;;;7.21;100.00;102489.22;5009943;28;20036;-76
2022/11/30 10:10:50;;;;;;;59.10;20.67;;;;;;;7.20;100.00;102490.06;5006006;28;20077;-76
2022/11/30 10:13:38;;;;;;;53.67;21.23;;;;;;;7.17;100.00;102485.69;5011426;28;20021;-76
2022/11/30 10:16:30;;;;;;;59.67;21.08;;;;;;;7.17;100.00;102490.00;5011384;28;20029;-76
2022/11/30 10:19:17;;;;;;;57.22;20.90;;;;;;;7.19;100.00;102490.88;5010092;28;20726;-76
2022/11/30 10:22:06;;;;;;;57.33;21.00;;;;;;;7.12;100.00;102495.94;5006988;28;20453;-76
2022/11/30 10:25:07;;;;;;;54.03;20.40;;;;;;;7.08;100.00;102491.59;4998812;28;20029;-76
2022/11/30 10:27:48;;;;;;;57.63;20.90;;;;;;;7.10;100.00;102496.75;5010988;28;20040;-76
2022/11/30 10:30:29;;;;;;;57.08;20.55;;;;;;;7.09;100.00;102489.88;5009704;28;20093;-76
2022/11/30 10:33:04;;;;;;;55.47;20.10;;;;;;;7.06;100.00;102495.84;5009068;28;20105;-76
2022/11/30 10:35:49;;;;;;;51.05;19.92;;;;;;;7.06;100.00;102490.69;5011163;28;20507;-76
2022/11/30 10:38:26;;;;;;;52.28;20.38;;;;;;;7.09;100.00;102492.47;5010751;28;20026;-76
2022/11/30 10:41:23;;;;;;;55.60;21.33;;;;;;;7.07;100.00;102489.84;5011130;28;20022;-76
2022/11/30 10:44:03;;;;;;;54.20;20.92;;;;;;;7.04;100.00;102487.22;4994217;28;20116;-76
2022/11/30 10:46:42;;;;;;;54.20;21.60;;;;;;;7.11;100.00;102491.63;5010032;28;20041;-76
2022/11/30 10:49:14;;;;;;;54.50;22.27;;;;;;;7.11;100.00;102489.06;5006687;28;20456;-76
2022/11/30 10:51:43;;;;;;;51.88;20.15;;;;;;;7.19;100.00;102481.44;5009850;28;20033;-76
2022/11/30 10:54:14;;;;;;;58.13;21.98;;;;;;;7.21;100.00;102486.63;5010752;28;20033;-76
2022/11/30 10:56:40;;;;;;;55.85;21.63;;;;;;;7.21;100.00;102479.78;5009867;28;20424;-76
2022/11/30 10:59:18;;;;;;;56.88;22.10;;;;;;;7.23;100.00;102477.22;5006878;28;20506;-76
2022/11/30 11:01:44;;;;;;;51.60;21.08;;;;;;;7.21;100.00;102476.31;5005849;28;20427;-76
2022/11/30 11:04:19;;;;;;;52.03;20.75;;;;;;;7.17;100.00;102483.13;5013700;28;20025;-76
2022/11/30 11:06:47;;;;;;;51.83;20.63;;;;;;;7.14;100.00;102472.78;5014424;28;20588;-76
2022/11/30 11:09:26;;;;;;;55.72;20.10;;;;;;;7.18;100.00;102479.69;5014791;28;20049;-76
2022/11/30 11:11:53;;;;;;;55.53;21.38;;;;;;;7.19;100.00;102481.44;5013493;28;20277;-76
2022/11/30 11:14:21;;;;;;;48.83;20.67;;;;;;;7.15;100.00;102482.25;5015006;28;20017;-75
2022/11/30 11:17:16;;;;;;;52.08;21.13;;;;;;;7.13;100.00;102482.22;5013702;28;20079;-76
2022/11/30 11:19:42;;;;;;;52.78;20.38;;;;;;;7.11;100.00;102485.59;5000120;28;20065;-76